Logo AVAMET
Benvolgut visitant, si us plau, ingressa Recuperar contrasenya

Sant Lluís

Dades diàries. Acumulats / Últims 30 dies disponibles

Data Temperatura (°C) Humitat rel. (%) Pressió rel. (hPa) Vent (km/h) Precipitació
Mínima Mitjana Màxima Amplitud
tèrmica
Mínima Mitjana Màxima Mínima Mitjana Màxima Predom. Mitjana Ràfega
màxima
Total
(mm)
Índex-n
Mínima Mitjana Màxima Mínima Mitjana Màxima n
0 a 1
P0 max
mm 5'
Dades mensuals acumulades fins l'últim dia disponible
08/2019 19,3 23,2 26,1 27,1 26,7 31,1 33,3 14,0 34 76 94 1.009 1.015 1.020   10,6 50,0 0,3
Dades anuals acumulades fins l'últim dia disponible
2019 4,7 14,4 26,1 18,1 9,6 22,0 34,2 29,5 32 77 96 992 1.017 1.035   11,9 81,4 165,1
Últims 30 dies disponibles
22-08-2019 19,7     24,5     28,6 8,9 58 73 85 1.017 1.018 1.019 SE 12,0 46,7 0,0
21-08-2019 20,8     24,6     28,3 7,5 51 65 80 1.017 1.019 1.020 ENE 15,0 42,6 0,0
20-08-2019 23,3     26,2     30,6 7,3 68 78 90 1.015 1.017 1.019 NE 19,2 46,7 0,0
19-08-2019 23,8     27,8     31,3 7,5 70 83 93 1.013 1.015 1.016 SE 9,4 24,1 0,0
18-08-2019 25,1     27,8     31,5 6,4 67 80 87 1.012 1.013 1.015 SE 11,9 25,9 0,0
17-08-2019 24,6     27,5     32,1 7,5 64 77 86 1.015 1.016 1.017 SSE 8,8 22,5 0,0
16-08-2019 21,1     26,1     31,2 10,1 56 71 84 1.016 1.018 1.019 ESE 7,5 24,1 0,0
15-08-2019 21,6     25,9     30,6 9,0 47 73 92 1.017 1.018 1.019 S 8,3 24,1 0,0
14-08-2019 19,3     27,5     29,8 10,5 60 70 83 1.017 1.018 1.019 O 14,0 32,2 0,0
13-08-2019 20,7     24,1     26,7 6,0 53 64 76 1.017 1.017 1.018 ENE 16,5 50,0 0,0
12-08-2019 24,9     26,3     28,2 3,3 71 84 94 1.010 1.013 1.014 E 14,8 45,0 0,0
11-08-2019 25,9     28,9     33,1 7,2 72 84 92 1.011 1.013 1.015 SSE 6,2 24,1 0,0
10-08-2019 25,9     28,5     31,9 6,0 72 84 94 1.013 1.014 1.016 SSE 9,3 25,9 0,3
09-08-2019 26,1     28,5     32,2 6,1 74 84 91 1.012 1.013 1.014 SSO 9,0 25,9 0,0
08-08-2019 24,0     28,1     33,3 9,3 68 82 93 1.010 1.012 1.013 SE 5,1 18,5 0,0
07-08-2019 25,2     28,4     32,9 7,7 68 82 92 1.009 1.010 1.011 SSO 6,1 22,5 0,0
06-08-2019 25,6     28,4     33,2 7,6 69 82 92 1.010 1.012 1.014 SSE 7,6 24,1 0,0
05-08-2019 22,6     27,5     31,9 9,3 65 79 91 1.013 1.014 1.015 ESE 8,4 22,5 0,0
04-08-2019 21,8     27,7     32,3 10,5 39 71 90 1.013 1.014 1.015 SE 6,7 22,5 0,0
03-08-2019 20,9     26,8     33,2 12,3 34 65 83 1.013 1.014 1.015 ESE 8,9 35,4 0,0
02-08-2019 22,5     26,8     30,4 7,9 50 72 93 1.010 1.012 1.014 ENE 14,1 46,7 0,0
01-08-2019 24,1     27,4     31,1 7,0 65 76 91 1.010 1.012 1.015 ENE 13,6 38,9 0,0
31-07-2019 23,5     25,5     28,2 4,7 55 69 77 1.014 1.016 1.018 NE 20,6 48,3 0,0
30-07-2019 24,4     27,8     31,2 6,8 56 70 83 1.012 1.014 1.016 E 14,2 33,8 0,0
29-07-2019 23,8     27,6     31,2 7,4 56 69 84 1.010 1.011 1.012 OSO 9,4 25,9 0,0
28-07-2019 20,8     24,6     28,4 7,6 52 69 87 1.005 1.008 1.011 ENE 10,0 32,2 0,8
27-07-2019 23,2     26,8     32,4 9,2 61 77 90 1.001 1.004 1.008 S 8,0 62,9 0,0
26-07-2019 24,1     28,3     32,8 8,7 63 77 89 1.008 1.011 1.014 SE 6,0 19,3 0,0
25-07-2019 23,2     28,0     31,8 8,6 66 79 93 1.013 1.014 1.015 ESE 7,4 24,1 0,0
24-07-2019 23,6     27,8     32,0 8,4 59 79 91 1.015 1.015 1.016 E 7,1 29,6 0,0
Últims 13 mesos disponibles
07/2019 20,2 22,9 25,8 27,2 28,2 31,5 34,2 14,0 57 74 84 1.004 1.014 1.021 ESE 7,2 62,9 3,0
06/2019 12,6 18,5 22,9 22,8 22,2 26,9 33,2 20,6 68 77 85 1.009 1.015 1.022 E 10,1 51,8 1,2
05/2019 9,1 13,8 17,1 17,6 18,4 21,8 24,3 15,2 55 74 87 1.001 1.015 1.024 SSO 12,4 80,4 5,4
04/2019 5,8 11,6 15,8 15,0 16,3 18,7 21,4 15,6 71 80 94 996 1.013 1.025 E 13,0 59,6 63,6
03/2019 7,2 10,0 13,6 13,7 12,8 17,6 21,2 14,0 63 78 89 1.013 1.022 1.029 ESE 12,7 70,8 16,0
02/2019 5,7 8,9 13,2 12,1 11,8 15,9 19,2 13,5 58 79 90 996 1.023 1.033 E 12,4 69,2 12,8
01/2019 4,7 8,1 12,3 10,9 9,6 14,1 17,8 13,1 63 76 85 999 1.017 1.028 NO 16,4 81,4 62,5
12/2018 8,1 10,5 14,5 13,7 13,9 17,4 20,4 12,3 77 84 92 1.008 1.024 1.030 NNW 10,3 66,0 16,4
11/2018 9,4 13,7 18,2 16,2 15,4 19,2 21,6 12,2 73 83 92 999 1.014 1.023 SO 13,8 68,5 126,6
10/2018 9,4 16,1 21,1 19,7 15,2 23,4 29,3 19,9 65 80 89 994 1.012 1.023 SO 13,9 88,8 131,6
09/2018 14,8 22,2 26,9 25,8 24,9 29,9 35,4 20,6 65 79 90 1.012 1.019 1.027 8,9 72,4 37,2
08/2018 20,5 23,5 26,9 27,4 27,9 31,5 35,4 14,9 61 75 81 1.013 1.016 1.021 8,2 72,4 5,3
07/2018 19,6 22,4 24,9 26,5 28,6 30,7 33,9 14,3 8,6 69,2 9,7
Tots els anys disponibles
2018 3,2 14,7 26,9 18,1 7,6 21,7 35,4 32,2 61 81 92 994 1.017 1.030 NNE 11,8 90,1 720,7
2017 2,9 14,7 26,8 18,5 7,4 22,5 36,4 33,5 11,2 93,3 501,5
Temperatura (°C)
Humitat relativa (%)
Velocitat del vent i ràfega màxima (km/h)
Direcció del vent (°)
Pressió (hPa)
Precipitació (mm)
Nota sobre les dades: s'avisa a l'usuari de la provisionalitat i no oficialitat d'aquestes dades
Logo AVAMET blanc
Web allotjada a Sollutia
Llicència de Creative CommonsLa web d'AVAMET i els seus continguts estan subjectes a una llicència de
Reconeixement - No Comercial - Compartir igual
Properes estacions: Altea - Club Nàutic d'Altea (Soci), Ares del Maestrat (Ajuntament Soci),      - - - - -      Últimes estacions: Catadau - Urb. Lloma Molina (Inforatge), Ontinyent - El Pilar (Soci) - - -